sensor_id;sensor_type;location;lat;lon;timestamp;P1;P2;P0
74086;PMS7003;62445;48.406;-4.518;2023-08-31T00:02:20;7.25;6.00;5.00
74086;PMS7003;62445;48.406;-4.518;2023-08-31T00:04:46;5.00;5.00;4.75
74086;PMS7003;62445;48.406;-4.518;2023-08-31T00:07:11;5.75;5.50;4.50
74086;PMS7003;62445;48.406;-4.518;2023-08-31T00:09:36;4.50;4.50;4.00
74086;PMS7003;62445;48.406;-4.518;2023-08-31T00:12:02;4.00;4.00;4.00
74086;PMS7003;62445;48.406;-4.518;2023-08-31T00:14:28;5.00;3.75;3.50
74086;PMS7003;62445;48.406;-4.518;2023-08-31T00:16:53;4.00;4.00;4.00
74086;PMS7003;62445;48.406;-4.518;2023-08-31T00:19:19;4.75;4.75;4.25
74086;PMS7003;62445;48.406;-4.518;2023-08-31T00:21:44;7.00;5.50;5.00
74086;PMS7003;62445;48.406;-4.518;2023-08-31T00:24:10;5.00;5.00;4.75
74086;PMS7003;62445;48.406;-4.518;2023-08-31T00:26:36;2.00;1.25;1.00
74086;PMS7003;62445;48.406;-4.518;2023-08-31T00:29:08;4.00;3.50;3.25
74086;PMS7003;62445;48.406;-4.518;2023-08-31T00:31:35;4.75;3.00;2.75
74086;PMS7003;62445;48.406;-4.518;2023-08-31T00:34:01;4.00;4.00;3.50
74086;PMS7003;62445;48.406;-4.518;2023-08-31T00:36:29;5.00;4.25;4.00
74086;PMS7003;62445;48.406;-4.518;2023-08-31T00:38:58;4.00;4.00;3.75
74086;PMS7003;62445;48.406;-4.518;2023-08-31T00:41:35;3.00;3.00;3.00
74086;PMS7003;62445;48.406;-4.518;2023-08-31T00:44:01;3.50;3.50;3.25
74086;PMS7003;62445;48.406;-4.518;2023-08-31T00:46:29;3.50;3.50;3.50
74086;PMS7003;62445;48.406;-4.518;2023-08-31T00:48:56;4.00;4.00;3.00
74086;PMS7003;62445;48.406;-4.518;2023-08-31T00:51:22;6.00;4.25;4.25
74086;PMS7003;62445;48.406;-4.518;2023-08-31T00:53:48;3.00;3.00;3.00
74086;PMS7003;62445;48.406;-4.518;2023-08-31T00:56:16;3.00;3.00;2.00
74086;PMS7003;62445;48.406;-4.518;2023-08-31T00:58:43;3.00;3.00;3.00
74086;PMS7003;62445;48.406;-4.518;2023-08-31T01:01:25;2.75;2.75;2.25
74086;PMS7003;62445;48.406;-4.518;2023-08-31T01:09:38;3.25;3.25;3.00
74086;PMS7003;62445;48.406;-4.518;2023-08-31T01:12:34;3.00;3.00;2.00
74086;PMS7003;62445;48.406;-4.518;2023-08-31T01:15:06;2.00;2.00;2.00
74086;PMS7003;62445;48.406;-4.518;2023-08-31T01:17:37;3.00;3.00;2.50
74086;PMS7003;62445;48.406;-4.518;2023-08-31T01:20:10;4.00;4.00;3.50
74086;PMS7003;62445;48.406;-4.518;2023-08-31T01:25:20;2.00;2.00;2.00
74086;PMS7003;62445;48.406;-4.518;2023-08-31T01:27:46;3.00;3.00;3.00
74086;PMS7003;62445;48.406;-4.518;2023-08-31T01:30:11;3.00;3.00;2.00
74086;PMS7003;62445;48.406;-4.518;2023-08-31T01:32:37;3.00;3.00;3.00
74086;PMS7003;62445;48.406;-4.518;2023-08-31T01:35:10;3.00;3.00;2.75
74086;PMS7003;62445;48.406;-4.518;2023-08-31T01:37:56;3.50;3.50;3.00
74086;PMS7003;62445;48.406;-4.518;2023-08-31T01:40:35;2.50;2.50;2.25
74086;PMS7003;62445;48.406;-4.518;2023-08-31T01:43:04;1.75;1.75;1.00
74086;PMS7003;62445;48.406;-4.518;2023-08-31T01:45:32;2.00;2.00;2.00
74086;PMS7003;62445;48.406;-4.518;2023-08-31T01:48:02;2.50;2.50;2.00
74086;PMS7003;62445;48.406;-4.518;2023-08-31T01:50:28;3.00;3.00;2.75
74086;PMS7003;62445;48.406;-4.518;2023-08-31T01:52:54;2.00;2.00;1.50
74086;PMS7003;62445;48.406;-4.518;2023-08-31T01:55:20;4.00;3.00;3.00
74086;PMS7003;62445;48.406;-4.518;2023-08-31T01:57:46;2.00;2.00;2.00
74086;PMS7003;62445;48.406;-4.518;2023-08-31T02:00:13;1.50;1.50;1.25
74086;PMS7003;62445;48.406;-4.518;2023-08-31T02:02:39;2.00;2.00;2.00
74086;PMS7003;62445;48.406;-4.518;2023-08-31T02:05:04;2.00;2.00;2.00
74086;PMS7003;62445;48.406;-4.518;2023-08-31T02:07:30;2.25;2.25;2.25
74086;PMS7003;62445;48.406;-4.518;2023-08-31T02:09:56;2.50;2.50;2.00
74086;PMS7003;62445;48.406;-4.518;2023-08-31T02:12:21;2.00;2.00;2.00
74086;PMS7003;62445;48.406;-4.518;2023-08-31T02:14:47;2.00;2.00;2.00
74086;PMS7003;62445;48.406;-4.518;2023-08-31T02:17:13;1.75;1.75;1.25
74086;PMS7003;62445;48.406;-4.518;2023-08-31T02:19:38;2.75;2.00;2.00
74086;PMS7003;62445;48.406;-4.518;2023-08-31T02:22:03;3.00;3.00;2.00
74086;PMS7003;62445;48.406;-4.518;2023-08-31T02:24:29;3.00;3.00;3.00
74086;PMS7003;62445;48.406;-4.518;2023-08-31T02:26:55;2.75;2.75;2.25
74086;PMS7003;62445;48.406;-4.518;2023-08-31T02:29:21;3.50;3.00;2.25
74086;PMS7003;62445;48.406;-4.518;2023-08-31T02:31:47;2.50;2.00;2.00
74086;PMS7003;62445;48.406;-4.518;2023-08-31T02:34:13;2.50;2.50;2.25
74086;PMS7003;62445;48.406;-4.518;2023-08-31T02:36:38;2.00;2.00;1.75
74086;PMS7003;62445;48.406;-4.518;2023-08-31T02:39:03;3.00;3.00;3.00
74086;PMS7003;62445;48.406;-4.518;2023-08-31T02:41:29;2.00;2.00;2.00
74086;PMS7003;62445;48.406;-4.518;2023-08-31T02:43:54;2.00;1.50;1.25
74086;PMS7003;62445;48.406;-4.518;2023-08-31T02:46:20;2.75;2.00;2.00
74086;PMS7003;62445;48.406;-4.518;2023-08-31T02:48:46;2.00;2.00;1.25
74086;PMS7003;62445;48.406;-4.518;2023-08-31T02:51:11;2.75;2.00;2.00
74086;PMS7003;62445;48.406;-4.518;2023-08-31T02:53:37;2.00;2.00;2.00
74086;PMS7003;62445;48.406;-4.518;2023-08-31T02:56:02;1.00;1.00;1.00
74086;PMS7003;62445;48.406;-4.518;2023-08-31T02:58:28;2.00;2.00;2.00
74086;PMS7003;62445;48.406;-4.518;2023-08-31T03:00:53;1.75;1.00;1.00
74086;PMS7003;62445;48.406;-4.518;2023-08-31T03:03:19;1.00;1.00;1.00
74086;PMS7003;62445;48.406;-4.518;2023-08-31T03:05:45;2.25;2.00;2.00
74086;PMS7003;62445;48.406;-4.518;2023-08-31T03:08:10;3.00;2.00;2.00
74086;PMS7003;62445;48.406;-4.518;2023-08-31T03:10:36;2.75;1.00;1.00
74086;PMS7003;62445;48.406;-4.518;2023-08-31T03:13:03;1.25;1.00;1.00
74086;PMS7003;62445;48.406;-4.518;2023-08-31T03:15:29;1.00;1.00;1.00
74086;PMS7003;62445;48.406;-4.518;2023-08-31T03:17:54;1.00;1.00;0.75
74086;PMS7003;62445;48.406;-4.518;2023-08-31T03:20:20;1.00;1.00;1.00
74086;PMS7003;62445;48.406;-4.518;2023-08-31T03:22:45;3.25;1.75;1.25
74086;PMS7003;62445;48.406;-4.518;2023-08-31T03:25:10;2.00;2.00;2.00
74086;PMS7003;62445;48.406;-4.518;2023-08-31T03:27:36;1.25;1.25;1.00
74086;PMS7003;62445;48.406;-4.518;2023-08-31T03:30:02;1.00;1.00;1.00
74086;PMS7003;62445;48.406;-4.518;2023-08-31T03:32:28;2.00;1.75;1.75
74086;PMS7003;62445;48.406;-4.518;2023-08-31T03:34:54;2.25;1.00;1.00
74086;PMS7003;62445;48.406;-4.518;2023-08-31T03:37:19;2.00;2.00;2.00
74086;PMS7003;62445;48.406;-4.518;2023-08-31T03:39:47;1.00;1.00;1.00
74086;PMS7003;62445;48.406;-4.518;2023-08-31T03:42:13;1.00;1.00;1.00
74086;PMS7003;62445;48.406;-4.518;2023-08-31T03:44:38;1.00;1.00;0.75
74086;PMS7003;62445;48.406;-4.518;2023-08-31T03:47:03;1.00;1.00;1.00
74086;PMS7003;62445;48.406;-4.518;2023-08-31T03:49:29;1.50;1.50;1.00
74086;PMS7003;62445;48.406;-4.518;2023-08-31T03:51:56;1.00;1.00;1.00
74086;PMS7003;62445;48.406;-4.518;2023-08-31T03:54:22;1.00;1.00;0.00
74086;PMS7003;62445;48.406;-4.518;2023-08-31T03:56:47;3.00;1.75;1.00
74086;PMS7003;62445;48.406;-4.518;2023-08-31T03:59:13;1.00;1.00;1.00
74086;PMS7003;62445;48.406;-4.518;2023-08-31T04:01:38;1.50;1.00;1.00
74086;PMS7003;62445;48.406;-4.518;2023-08-31T04:04:04;2.00;2.00;1.25
74086;PMS7003;62445;48.406;-4.518;2023-08-31T04:06:30;0.75;0.75;0.75
74086;PMS7003;62445;48.406;-4.518;2023-08-31T04:08:55;1.00;1.00;1.00
74086;PMS7003;62445;48.406;-4.518;2023-08-31T04:11:21;1.00;1.00;0.50
74086;PMS7003;62445;48.406;-4.518;2023-08-31T04:13:47;1.00;1.00;1.00
74086;PMS7003;62445;48.406;-4.518;2023-08-31T04:16:12;1.00;1.00;0.50
74086;PMS7003;62445;48.406;-4.518;2023-08-31T04:18:37;1.00;1.00;0.50
74086;PMS7003;62445;48.406;-4.518;2023-08-31T04:21:03;1.00;1.00;1.00
74086;PMS7003;62445;48.406;-4.518;2023-08-31T04:23:28;3.00;1.00;1.00
74086;PMS7003;62445;48.406;-4.518;2023-08-31T04:25:54;1.00;1.00;1.00
74086;PMS7003;62445;48.406;-4.518;2023-08-31T04:28:21;1.00;1.00;1.00
74086;PMS7003;62445;48.406;-4.518;2023-08-31T04:30:46;0.50;0.50;0.50
74086;PMS7003;62445;48.406;-4.518;2023-08-31T04:33:12;1.00;0.75;0.75
74086;PMS7003;62445;48.406;-4.518;2023-08-31T04:35:37;1.00;1.00;1.00
74086;PMS7003;62445;48.406;-4.518;2023-08-31T04:38:03;1.00;1.00;1.00
74086;PMS7003;62445;48.406;-4.518;2023-08-31T04:40:28;0.75;0.75;0.75
74086;PMS7003;62445;48.406;-4.518;2023-08-31T04:42:54;1.00;1.00;1.00
74086;PMS7003;62445;48.406;-4.518;2023-08-31T04:45:20;1.00;1.00;1.00
74086;PMS7003;62445;48.406;-4.518;2023-08-31T04:47:45;2.00;1.00;1.00
74086;PMS7003;62445;48.406;-4.518;2023-08-31T04:50:10;0.00;0.00;0.00
74086;PMS7003;62445;48.406;-4.518;2023-08-31T04:52:36;0.25;0.25;0.00
74086;PMS7003;62445;48.406;-4.518;2023-08-31T04:55:01;1.00;1.00;1.00
74086;PMS7003;62445;48.406;-4.518;2023-08-31T04:57:32;1.00;1.00;1.00
74086;PMS7003;62445;48.406;-4.518;2023-08-31T04:59:57;1.00;1.00;0.25
74086;PMS7003;62445;48.406;-4.518;2023-08-31T05:02:23;0.50;0.50;0.00
74086;PMS7003;62445;48.406;-4.518;2023-08-31T05:04:48;1.00;1.00;1.00
74086;PMS7003;62445;48.406;-4.518;2023-08-31T05:07:13;0.00;0.00;0.00
74086;PMS7003;62445;48.406;-4.518;2023-08-31T05:09:39;1.00;1.00;1.00
74086;PMS7003;62445;48.406;-4.518;2023-08-31T05:12:04;1.00;1.00;1.00
74086;PMS7003;62445;48.406;-4.518;2023-08-31T05:14:30;0.50;0.50;0.50
74086;PMS7003;62445;48.406;-4.518;2023-08-31T05:16:55;0.25;0.25;0.25
74086;PMS7003;62445;48.406;-4.518;2023-08-31T05:19:21;0.50;0.50;0.50
74086;PMS7003;62445;48.406;-4.518;2023-08-31T05:21:47;0.75;0.75;0.75
74086;PMS7003;62445;48.406;-4.518;2023-08-31T05:24:13;1.00;1.00;0.00
74086;PMS7003;62445;48.406;-4.518;2023-08-31T05:26:39;1.00;0.00;0.00
74086;PMS7003;62445;48.406;-4.518;2023-08-31T05:29:04;1.50;1.50;1.00
74086;PMS7003;62445;48.406;-4.518;2023-08-31T05:31:30;0.75;0.75;0.25
74086;PMS7003;62445;48.406;-4.518;2023-08-31T05:33:56;1.00;0.75;0.50
74086;PMS7003;62445;48.406;-4.518;2023-08-31T05:36:21;0.50;0.50;0.00
74086;PMS7003;62445;48.406;-4.518;2023-08-31T05:38:47;1.00;1.00;0.50
74086;PMS7003;62445;48.406;-4.518;2023-08-31T05:41:12;1.00;1.00;1.00
74086;PMS7003;62445;48.406;-4.518;2023-08-31T05:43:38;1.00;1.00;1.00
74086;PMS7003;62445;48.406;-4.518;2023-08-31T05:46:06;1.00;1.00;1.00
74086;PMS7003;62445;48.406;-4.518;2023-08-31T05:48:33;0.50;0.50;0.00
74086;PMS7003;62445;48.406;-4.518;2023-08-31T05:50:59;0.00;0.00;0.00
74086;PMS7003;62445;48.406;-4.518;2023-08-31T05:53:24;1.00;1.00;1.00
74086;PMS7003;62445;48.406;-4.518;2023-08-31T05:55:49;0.25;0.25;0.25
74086;PMS7003;62445;48.406;-4.518;2023-08-31T05:58:15;0.00;0.00;0.00
74086;PMS7003;62445;48.406;-4.518;2023-08-31T06:00:40;0.00;0.00;0.00
74086;PMS7003;62445;48.406;-4.518;2023-08-31T06:03:06;0.00;0.00;0.00
74086;PMS7003;62445;48.406;-4.518;2023-08-31T06:05:32;1.00;1.00;0.75
74086;PMS7003;62445;48.406;-4.518;2023-08-31T06:07:58;0.00;0.00;0.00
74086;PMS7003;62445;48.406;-4.518;2023-08-31T06:10:24;1.00;1.00;0.25
74086;PMS7003;62445;48.406;-4.518;2023-08-31T06:12:50;0.00;0.00;0.00
74086;PMS7003;62445;48.406;-4.518;2023-08-31T06:15:16;0.00;0.00;0.00
74086;PMS7003;62445;48.406;-4.518;2023-08-31T06:17:42;0.00;0.00;0.00
74086;PMS7003;62445;48.406;-4.518;2023-08-31T06:20:08;0.00;0.00;0.00
74086;PMS7003;62445;48.406;-4.518;2023-08-31T06:22:34;0.00;0.00;0.00
74086;PMS7003;62445;48.406;-4.518;2023-08-31T06:24:59;2.00;2.00;0.25
74086;PMS7003;62445;48.406;-4.518;2023-08-31T06:27:25;2.00;1.00;0.75
74086;PMS7003;62445;48.406;-4.518;2023-08-31T06:29:51;0.00;0.00;0.00
74086;PMS7003;62445;48.406;-4.518;2023-08-31T06:32:16;0.75;0.50;0.00
74086;PMS7003;62445;48.406;-4.518;2023-08-31T06:34:43;1.00;0.00;0.00
74086;PMS7003;62445;48.406;-4.518;2023-08-31T06:37:09;1.00;1.00;0.25
74086;PMS7003;62445;48.406;-4.518;2023-08-31T06:39:34;0.75;0.75;0.00
74086;PMS7003;62445;48.406;-4.518;2023-08-31T06:42:00;0.50;0.50;0.00
74086;PMS7003;62445;48.406;-4.518;2023-08-31T06:44:26;0.00;0.00;0.00
74086;PMS7003;62445;48.406;-4.518;2023-08-31T06:46:51;0.50;0.50;0.50
74086;PMS7003;62445;48.406;-4.518;2023-08-31T06:49:17;1.00;0.00;0.00
74086;PMS7003;62445;48.406;-4.518;2023-08-31T06:51:43;1.00;1.00;1.00
74086;PMS7003;62445;48.406;-4.518;2023-08-31T06:54:08;1.00;1.00;1.00
74086;PMS7003;62445;48.406;-4.518;2023-08-31T06:56:34;0.00;0.00;0.00
74086;PMS7003;62445;48.406;-4.518;2023-08-31T06:59:00;0.50;0.50;0.50
74086;PMS7003;62445;48.406;-4.518;2023-08-31T07:01:27;1.00;1.00;1.00
74086;PMS7003;62445;48.406;-4.518;2023-08-31T07:03:53;0.50;0.50;0.50
74086;PMS7003;62445;48.406;-4.518;2023-08-31T07:06:18;0.00;0.00;0.00
74086;PMS7003;62445;48.406;-4.518;2023-08-31T07:08:44;1.75;1.00;1.00
74086;PMS7003;62445;48.406;-4.518;2023-08-31T07:11:13;1.75;0.50;0.25
74086;PMS7003;62445;48.406;-4.518;2023-08-31T07:13:39;1.00;1.00;1.00
74086;PMS7003;62445;48.406;-4.518;2023-08-31T07:16:05;1.00;0.50;0.50
74086;PMS7003;62445;48.406;-4.518;2023-08-31T07:18:31;2.00;0.00;0.00
74086;PMS7003;62445;48.406;-4.518;2023-08-31T07:20:56;0.75;0.75;0.50
74086;PMS7003;62445;48.406;-4.518;2023-08-31T07:23:22;1.75;1.00;1.00
74086;PMS7003;62445;48.406;-4.518;2023-08-31T07:25:48;0.75;0.75;0.00
74086;PMS7003;62445;48.406;-4.518;2023-08-31T07:28:14;2.00;1.00;0.00
74086;PMS7003;62445;48.406;-4.518;2023-08-31T07:30:39;2.00;1.00;1.00
74086;PMS7003;62445;48.406;-4.518;2023-08-31T07:33:05;2.00;1.00;1.00
74086;PMS7003;62445;48.406;-4.518;2023-08-31T07:35:31;2.00;0.25;0.00
74086;PMS7003;62445;48.406;-4.518;2023-08-31T07:37:57;1.75;1.00;1.00
74086;PMS7003;62445;48.406;-4.518;2023-08-31T07:40:22;1.50;1.50;0.75
74086;PMS7003;62445;48.406;-4.518;2023-08-31T07:42:48;1.25;1.25;1.00
74086;PMS7003;62445;48.406;-4.518;2023-08-31T07:45:13;1.50;1.50;1.00
74086;PMS7003;62445;48.406;-4.518;2023-08-31T07:47:38;2.00;1.00;1.00
74086;PMS7003;62445;48.406;-4.518;2023-08-31T07:50:04;4.00;1.00;1.00
74086;PMS7003;62445;48.406;-4.518;2023-08-31T07:52:31;1.00;1.00;1.00
74086;PMS7003;62445;48.406;-4.518;2023-08-31T07:54:56;1.00;1.00;1.00
74086;PMS7003;62445;48.406;-4.518;2023-08-31T07:57:22;1.00;1.00;0.75
74086;PMS7003;62445;48.406;-4.518;2023-08-31T07:59:47;1.25;1.25;1.00
74086;PMS7003;62445;48.406;-4.518;2023-08-31T08:02:13;1.75;1.00;0.75
74086;PMS7003;62445;48.406;-4.518;2023-08-31T08:04:40;4.25;2.00;1.00
74086;PMS7003;62445;48.406;-4.518;2023-08-31T08:07:06;1.00;1.00;1.00
74086;PMS7003;62445;48.406;-4.518;2023-08-31T08:09:31;1.00;0.50;0.00
74086;PMS7003;62445;48.406;-4.518;2023-08-31T08:11:57;0.75;0.75;0.00
74086;PMS7003;62445;48.406;-4.518;2023-08-31T08:14:22;1.50;0.50;0.25
74086;PMS7003;62445;48.406;-4.518;2023-08-31T08:16:47;2.50;2.00;1.00
74086;PMS7003;62445;48.406;-4.518;2023-08-31T08:19:13;0.50;0.50;0.50
74086;PMS7003;62445;48.406;-4.518;2023-08-31T08:21:38;1.50;1.00;0.75
74086;PMS7003;62445;48.406;-4.518;2023-08-31T08:24:04;1.25;1.25;1.00
74086;PMS7003;62445;48.406;-4.518;2023-08-31T08:26:29;1.00;1.00;1.00
74086;PMS7003;62445;48.406;-4.518;2023-08-31T08:28:54;1.50;1.50;1.00
74086;PMS7003;62445;48.406;-4.518;2023-08-31T08:31:20;2.00;1.50;1.00
74086;PMS7003;62445;48.406;-4.518;2023-08-31T08:33:45;2.75;1.50;1.00
74086;PMS7003;62445;48.406;-4.518;2023-08-31T08:36:11;1.75;1.75;1.00
74086;PMS7003;62445;48.406;-4.518;2023-08-31T08:38:36;2.00;1.00;0.75
74086;PMS7003;62445;48.406;-4.518;2023-08-31T08:41:05;3.00;2.00;1.00
74086;PMS7003;62445;48.406;-4.518;2023-08-31T08:43:33;1.00;1.00;0.00
74086;PMS7003;62445;48.406;-4.518;2023-08-31T08:46:02;4.00;2.00;1.50
74086;PMS7003;62445;48.406;-4.518;2023-08-31T08:48:30;0.50;0.50;0.50
74086;PMS7003;62445;48.406;-4.518;2023-08-31T08:50:57;3.50;2.00;1.00
74086;PMS7003;62445;48.406;-4.518;2023-08-31T08:53:23;1.75;1.75;1.25
74086;PMS7003;62445;48.406;-4.518;2023-08-31T08:55:49;1.00;1.00;1.00
74086;PMS7003;62445;48.406;-4.518;2023-08-31T08:58:14;2.75;1.25;1.00
74086;PMS7003;62445;48.406;-4.518;2023-08-31T09:00:39;3.00;1.25;1.00
74086;PMS7003;62445;48.406;-4.518;2023-08-31T09:03:06;0.75;0.75;0.00
74086;PMS7003;62445;48.406;-4.518;2023-08-31T09:05:32;2.25;0.25;0.00
74086;PMS7003;62445;48.406;-4.518;2023-08-31T09:08:01;1.50;0.75;0.00
74086;PMS7003;62445;48.406;-4.518;2023-08-31T09:10:38;1.25;1.25;1.00
74086;PMS7003;62445;48.406;-4.518;2023-08-31T09:13:05;1.75;1.00;0.75
74086;PMS7003;62445;48.406;-4.518;2023-08-31T09:15:39;1.50;1.00;1.00
74086;PMS7003;62445;48.406;-4.518;2023-08-31T09:18:16;2.00;2.00;2.00
74086;PMS7003;62445;48.406;-4.518;2023-08-31T09:20:50;2.00;2.00;2.00
74086;PMS7003;62445;48.406;-4.518;2023-08-31T09:23:17;2.00;2.00;1.00
74086;PMS7003;62445;48.406;-4.518;2023-08-31T09:25:46;2.75;2.00;1.00
74086;PMS7003;62445;48.406;-4.518;2023-08-31T09:28:26;2.25;2.25;1.25
74086;PMS7003;62445;48.406;-4.518;2023-08-31T09:30:52;1.00;1.00;1.00
74086;PMS7003;62445;48.406;-4.518;2023-08-31T09:33:27;4.00;1.00;0.00
74086;PMS7003;62445;48.406;-4.518;2023-08-31T09:35:55;2.00;1.25;1.00
74086;PMS7003;62445;48.406;-4.518;2023-08-31T09:38:22;2.00;2.00;1.00
74086;PMS7003;62445;48.406;-4.518;2023-08-31T09:40:47;1.25;1.25;1.25
74086;PMS7003;62445;48.406;-4.518;2023-08-31T09:43:19;2.00;1.00;1.00
74086;PMS7003;62445;48.406;-4.518;2023-08-31T09:45:48;1.25;1.25;1.00
74086;PMS7003;62445;48.406;-4.518;2023-08-31T09:48:15;1.50;1.50;1.00
74086;PMS7003;62445;48.406;-4.518;2023-08-31T09:50:42;2.00;1.25;1.25
74086;PMS7003;62445;48.406;-4.518;2023-08-31T09:53:10;2.50;1.50;0.75
74086;PMS7003;62445;48.406;-4.518;2023-08-31T09:55:38;1.00;1.00;0.25
74086;PMS7003;62445;48.406;-4.518;2023-08-31T09:58:06;1.75;1.75;1.00
74086;PMS7003;62445;48.406;-4.518;2023-08-31T10:00:35;1.00;1.00;1.00
74086;PMS7003;62445;48.406;-4.518;2023-08-31T10:03:04;1.00;1.00;1.00
74086;PMS7003;62445;48.406;-4.518;2023-08-31T10:05:31;1.50;1.50;1.00
74086;PMS7003;62445;48.406;-4.518;2023-08-31T10:07:58;1.25;1.00;1.00
74086;PMS7003;62445;48.406;-4.518;2023-08-31T10:10:24;1.25;1.25;1.00
74086;PMS7003;62445;48.406;-4.518;2023-08-31T10:12:51;2.00;1.00;1.00
74086;PMS7003;62445;48.406;-4.518;2023-08-31T10:15:18;1.00;1.00;1.00
74086;PMS7003;62445;48.406;-4.518;2023-08-31T10:17:44;1.00;1.00;1.00
74086;PMS7003;62445;48.406;-4.518;2023-08-31T10:20:10;1.00;1.00;1.00
74086;PMS7003;62445;48.406;-4.518;2023-08-31T10:22:37;3.00;1.00;0.00
74086;PMS7003;62445;48.406;-4.518;2023-08-31T10:25:03;3.00;1.00;1.00
74086;PMS7003;62445;48.406;-4.518;2023-08-31T10:27:39;2.00;2.00;1.00
74086;PMS7003;62445;48.406;-4.518;2023-08-31T10:35:41;2.50;1.25;0.75
74086;PMS7003;62445;48.406;-4.518;2023-08-31T10:38:34;2.00;1.00;1.00
74086;PMS7003;62445;48.406;-4.518;2023-08-31T10:40:59;1.25;1.25;0.75
74086;PMS7003;62445;48.406;-4.518;2023-08-31T10:43:27;0.50;0.50;0.00
74086;PMS7003;62445;48.406;-4.518;2023-08-31T10:46:17;0.25;0.25;0.00
74086;PMS7003;62445;48.406;-4.518;2023-08-31T10:48:49;1.50;0.25;0.25
74086;PMS7003;62445;48.406;-4.518;2023-08-31T10:51:21;2.00;0.75;0.75
74086;PMS7003;62445;48.406;-4.518;2023-08-31T10:53:47;1.75;1.00;1.00
74086;PMS7003;62445;48.406;-4.518;2023-08-31T10:56:15;3.00;1.00;1.00
74086;PMS7003;62445;48.406;-4.518;2023-08-31T10:58:41;1.25;1.25;1.25
74086;PMS7003;62445;48.406;-4.518;2023-08-31T11:01:07;1.25;1.00;1.00
74086;PMS7003;62445;48.406;-4.518;2023-08-31T11:03:32;1.50;1.50;1.00
74086;PMS7003;62445;48.406;-4.518;2023-08-31T11:06:18;1.00;1.00;1.00
74086;PMS7003;62445;48.406;-4.518;2023-08-31T11:08:44;1.25;1.00;1.00
74086;PMS7003;62445;48.406;-4.518;2023-08-31T11:11:09;1.75;1.75;0.75
74086;PMS7003;62445;48.406;-4.518;2023-08-31T11:13:35;1.00;1.00;0.50
74086;PMS7003;62445;48.406;-4.518;2023-08-31T11:16:00;1.00;1.00;0.00
74086;PMS7003;62445;48.406;-4.518;2023-08-31T11:18:26;0.25;0.25;0.25
74086;PMS7003;62445;48.406;-4.518;2023-08-31T11:20:51;3.25;1.00;0.00
74086;PMS7003;62445;48.406;-4.518;2023-08-31T11:23:16;0.00;0.00;0.00
74086;PMS7003;62445;48.406;-4.518;2023-08-31T11:25:42;1.50;1.00;1.00
74086;PMS7003;62445;48.406;-4.518;2023-08-31T11:28:07;3.50;1.00;1.00
74086;PMS7003;62445;48.406;-4.518;2023-08-31T11:30:33;1.50;0.50;0.50
74086;PMS7003;62445;48.406;-4.518;2023-08-31T11:33:03;2.50;1.00;0.75
74086;PMS7003;62445;48.406;-4.518;2023-08-31T11:35:37;3.00;2.00;1.00
74086;PMS7003;62445;48.406;-4.518;2023-08-31T11:38:05;1.00;1.00;1.00
74086;PMS7003;62445;48.406;-4.518;2023-08-31T11:40:31;1.25;0.25;0.25
74086;PMS7003;62445;48.406;-4.518;2023-08-31T11:42:57;1.25;1.00;1.00
74086;PMS7003;62445;48.406;-4.518;2023-08-31T11:45:23;1.25;1.00;1.00
74086;PMS7003;62445;48.406;-4.518;2023-08-31T11:47:49;1.00;1.00;0.25
74086;PMS7003;62445;48.406;-4.518;2023-08-31T11:50:15;1.75;1.25;1.00
74086;PMS7003;62445;48.406;-4.518;2023-08-31T11:52:41;1.75;1.00;1.00
74086;PMS7003;62445;48.406;-4.518;2023-08-31T11:55:11;1.00;1.00;1.00
74086;PMS7003;62445;48.406;-4.518;2023-08-31T11:57:38;2.00;1.00;1.00
74086;PMS7003;62445;48.406;-4.518;2023-08-31T12:00:03;1.00;1.00;0.75
74086;PMS7003;62445;48.406;-4.518;2023-08-31T12:02:40;1.50;1.00;1.00
74086;PMS7003;62445;48.406;-4.518;2023-08-31T12:05:05;1.00;1.00;1.00
74086;PMS7003;62445;48.406;-4.518;2023-08-31T12:07:31;1.50;1.50;1.25
74086;PMS7003;62445;48.406;-4.518;2023-08-31T12:10:03;1.00;1.00;1.00
74086;PMS7003;62445;48.406;-4.518;2023-08-31T12:12:29;2.50;1.00;1.00
74086;PMS7003;62445;48.406;-4.518;2023-08-31T12:14:57;2.00;1.00;0.75
74086;PMS7003;62445;48.406;-4.518;2023-08-31T12:17:26;1.50;1.50;1.00
74086;PMS7003;62445;48.406;-4.518;2023-08-31T12:19:51;0.00;0.00;0.00
74086;PMS7003;62445;48.406;-4.518;2023-08-31T12:22:16;3.00;2.75;2.00
74086;PMS7003;62445;48.406;-4.518;2023-08-31T12:24:42;2.25;1.00;1.00
74086;PMS7003;62445;48.406;-4.518;2023-08-31T12:27:07;1.50;0.50;0.50
74086;PMS7003;62445;48.406;-4.518;2023-08-31T12:29:34;3.00;3.00;2.00
74086;PMS7003;62445;48.406;-4.518;2023-08-31T12:31:59;3.00;2.00;1.00
74086;PMS7003;62445;48.406;-4.518;2023-08-31T12:34:24;1.00;1.00;1.00
74086;PMS7003;62445;48.406;-4.518;2023-08-31T12:36:51;3.25;1.25;1.00
74086;PMS7003;62445;48.406;-4.518;2023-08-31T12:39:17;3.25;0.00;0.00
74086;PMS7003;62445;48.406;-4.518;2023-08-31T12:41:43;2.00;1.00;1.00
74086;PMS7003;62445;48.406;-4.518;2023-08-31T12:44:08;1.75;1.00;1.00
74086;PMS7003;62445;48.406;-4.518;2023-08-31T12:46:34;2.25;2.00;1.00
74086;PMS7003;62445;48.406;-4.518;2023-08-31T12:49:00;1.75;1.00;1.00
74086;PMS7003;62445;48.406;-4.518;2023-08-31T12:51:26;2.00;1.50;1.00
74086;PMS7003;62445;48.406;-4.518;2023-08-31T12:53:53;2.25;2.00;1.00
74086;PMS7003;62445;48.406;-4.518;2023-08-31T12:56:18;3.00;1.25;1.00
74086;PMS7003;62445;48.406;-4.518;2023-08-31T12:58:48;2.25;2.25;1.00
74086;PMS7003;62445;48.406;-4.518;2023-08-31T13:01:18;1.00;1.00;1.00
74086;PMS7003;62445;48.406;-4.518;2023-08-31T13:03:44;2.25;2.00;1.00
74086;PMS7003;62445;48.406;-4.518;2023-08-31T13:06:10;1.00;1.00;0.00
74086;PMS7003;62445;48.406;-4.518;2023-08-31T13:08:36;1.25;1.25;1.25
74086;PMS7003;62445;48.406;-4.518;2023-08-31T13:11:02;0.75;0.75;0.75
74086;PMS7003;62445;48.406;-4.518;2023-08-31T13:13:29;1.25;1.25;1.00
74086;PMS7003;62445;48.406;-4.518;2023-08-31T13:15:54;1.50;1.25;1.00
74086;PMS7003;62445;48.406;-4.518;2023-08-31T13:18:19;0.75;0.75;0.50
74086;PMS7003;62445;48.406;-4.518;2023-08-31T13:20:48;1.25;1.25;1.00
74086;PMS7003;62445;48.406;-4.518;2023-08-31T13:23:20;2.00;2.00;1.00
74086;PMS7003;62445;48.406;-4.518;2023-08-31T13:25:47;2.00;2.00;1.00
74086;PMS7003;62445;48.406;-4.518;2023-08-31T13:28:13;1.50;1.00;1.00
74086;PMS7003;62445;48.406;-4.518;2023-08-31T13:30:39;1.50;1.00;0.25
74086;PMS7003;62445;48.406;-4.518;2023-08-31T13:33:05;1.25;1.00;0.50
74086;PMS7003;62445;48.406;-4.518;2023-08-31T13:35:31;0.75;0.75;0.75
74086;PMS7003;62445;48.406;-4.518;2023-08-31T13:37:57;2.00;2.00;1.25
74086;PMS7003;62445;48.406;-4.518;2023-08-31T13:40:23;1.00;1.00;1.00
74086;PMS7003;62445;48.406;-4.518;2023-08-31T13:42:52;1.00;1.00;1.00
74086;PMS7003;62445;48.406;-4.518;2023-08-31T13:45:24;1.75;1.00;1.00
74086;PMS7003;62445;48.406;-4.518;2023-08-31T13:47:49;3.00;2.25;1.50
74086;PMS7003;62445;48.406;-4.518;2023-08-31T13:50:15;1.00;1.00;0.75
74086;PMS7003;62445;48.406;-4.518;2023-08-31T13:52:41;1.00;1.00;0.25
74086;PMS7003;62445;48.406;-4.518;2023-08-31T13:55:07;1.50;1.00;0.00
74086;PMS7003;62445;48.406;-4.518;2023-08-31T13:57:32;1.75;1.75;1.00
74086;PMS7003;62445;48.406;-4.518;2023-08-31T13:59:58;1.00;1.00;1.00
74086;PMS7003;62445;48.406;-4.518;2023-08-31T14:02:23;2.00;1.00;1.00
74086;PMS7003;62445;48.406;-4.518;2023-08-31T14:04:49;0.50;0.50;0.50
74086;PMS7003;62445;48.406;-4.518;2023-08-31T14:07:14;1.00;1.00;1.00
74086;PMS7003;62445;48.406;-4.518;2023-08-31T14:09:39;2.00;1.75;1.00
74086;PMS7003;62445;48.406;-4.518;2023-08-31T14:12:05;2.75;1.25;1.00
74086;PMS7003;62445;48.406;-4.518;2023-08-31T14:14:31;2.75;2.75;1.25
74086;PMS7003;62445;48.406;-4.518;2023-08-31T14:16:56;1.00;1.00;1.00
74086;PMS7003;62445;48.406;-4.518;2023-08-31T14:19:22;2.00;2.00;2.00
74086;PMS7003;62445;48.406;-4.518;2023-08-31T14:21:47;1.00;1.00;1.00